Latest Weather Observations for Kuitpo

IDS60901

Issued at 4:01 am CST Monday 3 August 2015 (issued every 10 minutes, with the page automatically refreshed every 10 minutes)

About weather observations | Map of Adelaide area stations | Latest observations for Adelaide area | Other Formats
Station Details ID: 023887 Name: KUITPO FOREST RESERVE Lat: -35.17 Lon: 138.68 Height: 365.0 m
Data from the previous 72 hours. | See also: Recent months at Kuitpo
Date/Time
CST
Tmp

°C
App
Tmp
°C
Dew
Point
°C
Rel
Hum
%
Delta-T

°C
Wind Press
QNH
hPa
Press
MSL
hPa
Rain
since
9 am
mm
Dir
 
Spd
km/h
Gust
km/h
Spd
kts
Gust
kts
03/04:00am 7.9 2.4 5.7 86 1.0 WSW 24 41 13 22 1020.1 1020.3 2.0
03/03:30am 7.8 1.9 7.4 97 0.2 WSW 28 46 15 25 1019.9 1020.1 2.0
03/03:06am 7.9 1.3 7.6 98 0.1 WSW 32 63 17 34 1019.9 1020.1 2.0
03/03:00am 8.0 2.1 7.7 98 0.1 WSW 28 44 15 24 1020.0 1020.2 2.0
03/02:30am 8.1 3.0 7.8 98 0.1 WSW 24 35 13 19 1019.9 1020.1 2.0
03/02:00am 8.3 2.6 8.2 99 0.0 WSW 28 48 15 26 1019.9 1020.1 2.0
03/01:35am 8.4 2.7 8.3 99 0.0 WSW 28 48 15 26 1019.7 1019.9 2.0
03/01:30am 8.4 2.7 8.3 99 0.0 WSW 28 43 15 23 1019.7 1019.9 2.0
03/01:00am 8.6 3.7 8.5 99 0.0 W 24 37 13 20 1019.6 1019.8 1.8
03/12:30am 8.1 2.3 7.8 98 0.1 W 28 43 15 23 1019.7 1019.9 1.8
03/12:00am 8.3 2.9 8.0 98 0.1 W 26 44 14 24 1019.9 1020.1 1.8
 
Date/Time
CST
Tmp

°C
App
Tmp
°C
Dew
Point
°C
Rel
Hum
%
Delta-T

°C
Wind Press
QNH
hPa
Press
MSL
hPa
Rain
since
9 am
mm
Dir
 
Spd
km/h
Gust
km/h
Spd
kts
Gust
kts
02/11:30pm 8.7 3.0 8.3 97 0.2 WSW 28 50 15 27 1019.6 1019.8 1.8
02/11:29pm 8.7 3.0 8.3 97 0.2 WSW 28 50 15 27 1019.7 1019.9 1.8
02/11:00pm 8.8 3.4 7.9 94 0.4 W 26 39 14 21 1019.7 1019.9 0.8
02/10:30pm 8.8 2.5 7.4 91 0.7 W 30 44 16 24 1019.7 1019.9 0.6
02/10:11pm 9.0 2.6 7.1 88 0.9 W 30 48 16 26 1019.6 1019.8 0.6
02/10:00pm 8.8 2.7 6.8 87 1.0 W 28 43 15 23 1019.7 1019.9 0.6
02/09:39pm 8.8 2.6 6.1 83 1.3 WSW 28 50 15 27 1019.7 1019.9 0.6
02/09:30pm 8.6 2.4 6.1 84 1.2 WSW 28 43 15 23 1019.7 1019.9 0.6
02/09:00pm 8.8 2.2 5.9 82 1.3 W 30 48 16 26 1019.6 1019.8 0.6
02/08:40pm 8.8 2.1 5.4 79 1.6 W 30 50 16 27 1019.5 1019.7 0.6
02/08:30pm 8.8 2.4 5.4 79 1.6 W 28 43 15 23 1019.4 1019.6 0.6
02/08:20pm 8.8 2.4 5.2 78 1.7 WSW 28 46 15 25 1019.4 1019.6 0.6
02/08:00pm 8.9 1.7 4.9 76 1.8 WSW 32 48 17 26 1019.2 1019.4 0.6
02/07:30pm 9.1 1.9 5.8 80 1.5 WSW 33 54 18 29 1018.8 1019.0 0.6
02/07:00pm 9.2 2.6 7.8 91 0.7 W 32 54 17 29 1018.6 1018.8 0.6
02/06:33pm 9.1 2.9 8.0 93 0.5 W 30 48 16 26 1018.3 1018.5 0.6
02/06:30pm 9.1 2.6 8.0 93 0.5 W 32 46 17 25 1018.3 1018.5 0.6
02/06:14pm 8.8 2.9 7.7 93 0.5 W 28 46 15 25 1018.3 1018.5 0.6
02/06:00pm 8.7 2.7 7.2 90 0.7 W 28 43 15 23 1018.2 1018.4 0.6
02/05:30pm 9.2 3.3 7.6 90 0.8 W 28 50 15 27 1017.8 1018.0 0.6
02/05:01pm 9.5 3.6 7.6 88 0.9 W 28 46 15 25 1017.6 1017.8 0.6
02/05:00pm 9.5 3.2 7.6 88 0.9 W 30 46 16 25 1017.6 1017.8 0.6
02/04:30pm 9.7 3.0 7.5 86 1.1 W 32 50 17 27 1017.5 1017.7 0.6
02/04:00pm 10.4 3.8 7.8 84 1.3 W 32 56 17 30 1017.3 1017.5 0.6
02/03:32pm 10.4 3.9 8.2 86 1.1 W 32 52 17 28 1017.3 1017.5 0.6
02/03:30pm 10.3 3.7 7.9 85 1.2 W 32 46 17 25 1017.3 1017.5 0.6
02/03:01pm 10.8 4.9 7.7 81 1.5 W 28 46 15 25 1017.1 1017.3 0.6
02/03:00pm 10.6 4.3 7.5 81 1.5 W 30 46 16 25 1017.0 1017.2 0.6
02/02:30pm 9.9 3.7 7.7 86 1.1 W 30 48 16 26 1017.0 1017.2 0.6
02/02:00pm 10.0 3.4 7.8 86 1.1 W 32 54 17 29 1017.0 1017.2 0.6
02/01:30pm 10.1 3.4 7.3 83 1.4 W 32 52 17 28 1017.0 1017.2 0.6
02/01:00pm 9.6 3.8 7.9 89 0.8 W 28 52 15 28 1017.1 1017.3 0.6
02/12:43pm 9.0 3.2 7.8 92 0.6 W 28 56 15 30 1017.1 1017.3 0.6
02/12:30pm 9.9 4.5 7.8 87 1.0 W 26 48 14 26 1017.3 1017.5 0.4
02/12:00pm 9.3 3.4 7.4 88 0.9 W 28 46 15 25 1017.5 1017.7 0.4
02/11:30am 8.4 2.6 7.8 96 0.3 W 28 46 15 25 1017.8 1018.0 0.4
02/11:17am 8.3 2.4 7.7 96 0.3 W 28 48 15 26 1017.7 1017.9 0.4
02/11:00am 8.4 3.4 8.0 97 0.2 W 24 37 13 20 1017.7 1017.9 0.4
02/10:30am 8.0 1.9 6.6 91 0.7 WNW 28 41 15 22 1017.7 1017.9 0.0
02/10:00am 8.3 3.3 6.6 89 0.8 WNW 22 35 12 19 1017.8 1018.0 0.0
02/09:30am 8.0 2.5 6.0 87 0.9 WNW 24 41 13 22 1017.5 1017.7 0.0
02/09:00am 7.4 2.9 6.8 96 0.3 WNW 20 30 11 16 1017.5 1017.7 3.6
02/08:30am 6.8 2.8 6.5 98 0.1 WNW 17 26 9 14 1017.3 1017.5 3.6
02/08:00am 6.6 2.1 6.3 98 0.1 W 19 28 10 15 1017.2 1017.4 3.6
02/07:30am 6.5 2.4 6.1 97 0.2 W 17 28 9 15 1017.0 1017.2 3.6
02/07:00am 6.4 1.7 6.1 98 0.1 WNW 20 28 11 15 1016.7 1016.9 3.6
02/06:30am 5.8 2.2 5.2 96 0.3 W 13 20 7 11 1016.5 1016.6 3.6
02/06:00am 5.6 1.3 5.2 97 0.2 WSW 17 26 9 14 1016.2 1016.3 3.6
02/05:30am 5.2 1.9 4.8 97 0.2 W 11 13 6 7 1015.9 1016.1 3.6
02/05:00am 5.4 2.2 5.1 98 0.1 W 11 13 6 7 1015.8 1016.0 3.6
02/04:30am 5.3 2.5 5.0 98 0.1 WSW 9 13 5 7 1015.9 1016.1 3.6
02/04:00am 5.2 2.4 5.1 99 0.0 W 9 11 5 6 1015.9 1016.1 3.6
02/03:30am 5.5 2.8 5.4 99 0.0 W 9 15 5 8 1016.0 1016.2 3.6
02/03:00am 5.7 3.4 5.6 99 0.0 W 7 13 4 7 1016.3 1016.4 3.6
02/02:30am 6.1 3.5 6.0 99 0.0 W 9 19 5 10 1016.4 1016.5 3.6
02/02:00am 5.9 2.9 5.8 99 0.0 WNW 11 20 6 11 1016.3 1016.4 3.6
02/01:30am 6.0 2.6 5.9 99 0.0 NW 13 22 7 12 1016.6 1016.7 3.6
02/01:00am 5.9 3.2 5.8 99 0.0 NW 9 15 5 8 1016.5 1016.6 3.6
02/12:30am 5.9 2.8 5.6 98 0.1 WNW 11 15 6 8 1016.9 1017.1 3.4
02/12:00am 6.0 3.3 5.7 98 0.1 NW 9 13 5 7 1016.9 1017.1 3.4
 
Date/Time
CST
Tmp

°C
App
Tmp
°C
Dew
Point
°C
Rel
Hum
%
Delta-T

°C
Wind Press
QNH
hPa
Press
MSL
hPa
Rain
since
9 am
mm
Dir
 
Spd
km/h
Gust
km/h
Spd
kts
Gust
kts
01/11:30pm 5.6 3.2 5.3 98 0.1 NW 7 9 4 5 1016.7 1016.9 3.4
01/11:00pm 6.0 3.9 5.7 98 0.1 WNW 6 9 3 5 1016.7 1016.9 3.4
01/10:30pm 6.1 4.0 5.7 97 0.2 WNW 6 11 3 6 1016.8 1017.0 3.4
01/10:00pm 6.1 5.1 5.7 97 0.2 CALM 0 4 0 2 1016.7 1016.9 3.4
01/09:30pm 6.2 4.1 5.8 97 0.2 N 6 7 3 4 1016.5 1016.6 3.0
01/09:00pm 6.2 4.9 5.8 97 0.2 N 2 6 1 3 1016.2 1016.3 2.6
01/08:30pm 6.3 4.0 5.7 96 0.3 N 7 9 4 5 1016.0 1016.2 2.0
01/08:00pm 6.5 5.5 5.8 95 0.3 CALM 0 0 0 0 1016.0 1016.2 1.4
01/07:30pm 6.6 4.5 5.9 95 0.3 NNW 6 11 3 6 1016.0 1016.2 0.8
01/07:00pm 6.7 4.1 6.0 95 0.3 NNE 9 15 5 8 1016.0 1016.2 0.4
01/06:30pm 6.6 3.5 5.7 94 0.4 NE 11 17 6 9 1014.7 1014.9 0.4
01/06:00pm 6.7 4.0 5.8 94 0.4 SE 9 13 5 7 1015.1 1015.3 0.4
01/05:30pm 6.8 4.1 5.7 93 0.5 SSE 9 13 5 7 1015.0 1015.2 0.4
01/05:00pm 7.0 4.7 5.8 92 0.5 SSE 7 11 4 6 1014.8 1015.0 0.4
01/04:30pm 7.6 5.6 6.2 91 0.6 E 6 11 3 6 1014.6 1014.8 0.4
01/04:00pm 7.4 4.4 5.9 90 0.7 E 11 15 6 8 1014.3 1014.5 0.4
01/03:30pm 7.5 4.1 6.1 91 0.6 ESE 13 17 7 9 1014.0 1014.1 0.4
01/03:00pm 7.7 5.5 6.0 89 0.8 NE 7 11 4 6 1014.7 1014.9 0.4
01/02:30pm 7.7 3.8 5.3 85 1.1 ENE 15 20 8 11 1013.6 1013.7 0.2
01/02:00pm 7.8 4.5 6.3 90 0.7 SE 13 17 7 9 1014.1 1014.2 0.0
01/01:30pm 7.9 5.8 6.5 91 0.7 SE 7 13 4 7 1015.2 1015.4 0.0
01/01:00pm 7.9 4.7 6.8 93 0.5 SSW 13 20 7 11 1016.8 1017.0 0.0
01/12:57pm 7.9 4.7 6.7 92 0.6 SSW 13 20 7 11 1016.7 1016.9 0.0
01/12:30pm 8.1 5.4 7.3 95 0.4 SE 11 17 6 9 1014.6 1014.8 0.0
01/12:00pm 7.9 5.9 7.3 96 0.3 SSE 7 11 4 6 1016.5 1016.6 0.0
01/11:30am 8.1 5.4 7.5 96 0.3 SSE 11 17 6 9 1016.2 1016.3 0.0
01/11:00am 8.2 5.2 7.8 97 0.2 ESE 13 20 7 11 1015.0 1015.2 0.0
01/10:30am 8.0 5.4 7.7 98 0.1 ESE 11 15 6 8 1015.5 1015.7 0.0
01/10:00am 7.8 5.6 7.7 99 0.0 E 9 13 5 7 1015.2 1015.4 0.0
01/09:30am 7.7 5.1 7.6 99 0.0 SSE 11 20 6 11 1015.5 1015.7 0.0
01/09:00am 7.8 4.0 7.7 99 0.0 SSE 17 28 9 15 1014.3 1014.6 9.6
01/08:30am 8.2 5.3 8.1 99 0.0 S 13 20 7 11 1014.8 1015.1 9.6
01/08:00am 8.3 6.2 8.2 99 0.0 SSE 9 17 5 9 1014.2 1014.5 9.6
01/07:30am 8.3 5.8 8.2 99 0.0 S 11 20 6 11 1014.3 1014.6 8.8
01/07:00am 8.4 5.9 8.3 99 0.0 S 11 20 6 11 1013.4 1013.6 8.2
01/06:30am 8.5 5.3 8.4 99 0.0 SSW 15 28 8 15 1012.9 1013.2 8.0
01/06:00am 8.8 6.4 8.7 99 0.0 S 11 17 6 9 1012.4 1012.7 7.4
01/05:30am 9.0 6.7 8.9 99 0.0 SSW 11 19 6 10 1012.2 1012.5 7.0
01/05:00am 9.2 6.5 9.1 99 0.1 WSW 13 20 7 11 1012.0 1012.3 6.6
01/04:30am 9.3 5.9 9.2 99 0.1 WSW 17 28 9 15 1011.2 1011.4 6.4
01/04:00am 11.4 7.2 11.2 99 0.1 NW 24 44 13 24 1010.5 1010.7 5.6
01/03:38am 11.4 6.5 11.2 99 0.1 NW 28 46 15 25 1010.3 1010.6 4.2
01/03:30am 11.4 6.5 11.2 99 0.1 NW 28 43 15 23 1010.3 1010.6 3.4
01/03:00am 11.4 6.5 11.2 99 0.1 NW 28 50 15 27 1010.5 1010.7 2.6
01/02:53am 11.4 6.5 11.2 99 0.1 NW 28 50 15 27 1010.5 1010.7 2.6
01/02:30am 11.4 6.8 11.1 98 0.2 NW 26 44 14 24 1010.7 1010.9 2.2
01/02:00am 11.6 6.7 11.3 98 0.2 NW 28 52 15 28 1010.8 1011.0 1.2
01/01:30am 11.6 6.3 11.3 98 0.2 NW 30 50 16 27 1010.8 1011.0 1.0
01/01:25am 11.5 6.6 11.2 98 0.2 NW 28 50 15 27 1010.7 1010.9 1.0
01/01:00am 11.3 6.6 10.8 97 0.3 NW 26 39 14 21 1011.0 1011.2 0.8
01/12:30am 11.0 6.2 10.4 96 0.3 NW 26 44 14 24 1010.9 1011.1 0.4
01/12:00am 10.8 5.6 10.2 96 0.3 NW 28 46 15 25 1011.0 1011.2 0.4
 
Date/Time
CST
Tmp

°C
App
Tmp
°C
Dew
Point
°C
Rel
Hum
%
Delta-T

°C
Wind Press
QNH
hPa
Press
MSL
hPa
Rain
since
9 am
mm
Dir
 
Spd
km/h
Gust
km/h
Spd
kts
Gust
kts
31/11:36pm 10.7 5.4 9.9 95 0.4 NW 28 46 15 25 1011.1 1011.3 0.4
31/11:30pm 10.7 5.8 9.8 94 0.5 NW 26 46 14 25 1011.1 1011.3 0.2
31/11:00pm 11.0 6.3 9.3 89 0.9 NW 24 48 13 26 1011.6 1011.9 0.2
31/10:30pm 11.6 7.0 8.3 80 1.7 NW 22 35 12 19 1011.8 1012.1 0.0
31/10:00pm 11.5 7.5 8.4 81 1.6 NW 19 32 10 17 1012.1 1012.4 0.0
31/09:30pm 11.9 7.8 8.0 77 1.9 NW 19 28 10 15 1012.2 1012.5 0.0
31/09:00pm 11.7 8.0 8.0 78 1.8 NW 17 26 9 14 1012.5 1012.8 0.0
31/08:30pm 11.4 8.5 8.1 80 1.6 NNW 13 20 7 11 1012.7 1013.0 0.0
31/08:00pm 10.8 7.8 7.9 82 1.4 NNW 13 20 7 11 1012.6 1012.9 0.0
31/07:30pm 10.7 7.7 7.8 82 1.4 NNW 13 19 7 10 1012.7 1013.0 0.0
31/07:00pm 11.1 8.1 7.8 80 1.6 NNW 13 20 7 11 1013.0 1013.3 0.0
31/06:30pm 11.1 8.5 7.8 80 1.6 NW 11 15 6 8 1013.2 1013.5 0.0
31/06:00pm 11.1 8.1 7.6 79 1.7 NNW 13 20 7 11 1013.1 1013.4 0.0
31/05:30pm 11.2 7.8 7.5 78 1.8 NW 15 20 8 11 1013.0 1013.3 0.0
31/05:00pm 11.1 7.6 7.4 78 1.8 NW 15 24 8 13 1013.4 1013.6 0.0
31/04:30pm 11.1 7.3 7.4 78 1.8 NW 17 26 9 14 1013.9 1014.2 0.0
31/04:00pm 11.4 7.2 7.3 76 2.0 NW 19 32 10 17 1014.0 1014.3 0.0
31/03:30pm 11.6 6.7 6.9 73 2.3 NW 22 33 12 18 1014.2 1014.5 0.0
31/03:00pm 11.9 7.3 6.6 70 2.6 NW 20 32 11 17 1014.2 1014.5 0.0
31/02:30pm 11.7 5.5 6.0 68 2.7 NW 28 44 15 24 1014.1 1014.4 0.0
31/02:00pm 11.8 6.7 6.1 68 2.7 NW 22 35 12 19 1014.8 1015.1 0.0
31/01:30pm 11.0 5.8 5.3 68 2.7 NW 22 37 12 20 1015.2 1015.5 0.0
31/01:00pm 10.3 5.4 5.1 70 2.4 NW 20 35 11 19 1015.7 1016.0 0.0
31/12:30pm 10.4 5.4 4.5 67 2.7 NNW 20 37 11 20 1016.5 1016.8 0.0
31/12:00pm 9.7 5.3 4.5 70 2.4 NNW 17 37 9 20 1017.5 1017.8 0.0
31/11:30am 9.3 4.4 4.1 70 2.3 NW 19 32 10 17 1018.0 1018.3 0.0
31/11:00am 9.2 4.2 3.8 69 2.4 NNW 19 28 10 15 1018.4 1018.8 0.0
31/10:30am 9.4 5.4 4.8 73 2.1 NNW 15 22 8 12 1018.8 1019.2 0.0
31/10:00am 8.5 6.0 4.9 78 1.6 NNW 7 11 4 6 1018.9 1019.3 0.0
31/09:30am 7.8 4.8 4.0 77 1.7 NNW 9 13 5 7 1019.4 1019.7 0.0
31/09:00am 6.7 4.1 4.2 84 1.1 N 7 13 4 7 1019.8 1020.1 1.4
31/08:30am 5.5 2.1 4.0 90 0.6 NNW 11 17 6 9 1019.8 1020.1 1.4
31/08:00am 3.8 0.6 2.8 93 0.4 N 9 11 5 6 1020.0 1020.3 1.4
31/07:30am 3.5 0.2 2.2 91 0.5 NNE 9 13 5 7 1019.9 1020.2 1.4
31/07:00am 3.8 0.5 2.5 91 0.5 NNE 9 13 5 7 1019.8 1020.1 1.4
31/06:30am 4.2 0.6 2.9 91 0.5 NE 11 15 6 8 1019.6 1019.9 1.4
31/06:00am 4.3 0.3 3.1 92 0.5 NE 13 19 7 10 1019.5 1019.8 1.4
31/05:30am 3.9 -0.1 2.9 93 0.4 NE 13 17 7 9 1019.5 1019.8 1.4
31/05:00am 4.2 0.6 2.7 90 0.6 NE 11 13 6 7 1019.2 1019.5 1.4
31/04:30am 4.5 0.9 3.0 90 0.6 ENE 11 13 6 7 1019.2 1019.5 1.4

Latest Capital City Observations: Canberra | Sydney | Melbourne | Brisbane | Adelaide | Perth | Hobart | Darwin

Other Formats:

Comma delimited format used in spreadsheet applications
http://www.bom.gov.au/fwo/IDS60901/IDS60901.94683.axf

JavaScript Object Notation format (JSON) in row-major order
http://www.bom.gov.au/fwo/IDS60901/IDS60901.94683.json